createdAt,value
2023-02-21T00:01:14.058Z,3.37
2023-02-21T00:06:37.021Z,3.17
2023-02-21T00:12:00.668Z,3.14
2023-02-21T00:17:22.450Z,2.95
2023-02-21T00:22:46.298Z,2.77
2023-02-21T00:28:07.525Z,2.98
2023-02-21T00:33:29.180Z,3.15
2023-02-21T00:38:51.908Z,3.44
2023-02-21T00:44:13.482Z,3.11
2023-02-21T00:49:35.363Z,3.33
2023-02-21T00:54:58.860Z,3.13
2023-02-21T01:00:22.704Z,3.22
2023-02-21T01:05:43.853Z,3.20
2023-02-21T01:11:06.602Z,3.25
2023-02-21T01:16:28.158Z,3.37
2023-02-21T01:21:49.971Z,3.03
2023-02-21T01:27:12.747Z,2.75
2023-02-21T01:32:34.431Z,2.82
2023-02-21T01:37:58.279Z,2.99
2023-02-21T01:43:21.334Z,3.21
2023-02-21T01:48:44.718Z,3.27
2023-02-21T01:54:06.560Z,3.15
2023-02-21T01:59:29.935Z,3.10
2023-02-21T02:04:52.725Z,3.24
2023-02-21T02:10:15.515Z,3.44
2023-02-21T02:15:36.714Z,3.40
2023-02-21T02:21:21.477Z,2.97
2023-02-21T02:27:11.453Z,3.22
2023-02-21T02:32:39.866Z,3.01
2023-02-21T02:37:51.520Z,3.32
2023-02-21T02:43:07.961Z,3.45
2023-02-21T02:48:19.628Z,3.20
2023-02-21T02:53:30.266Z,3.20
2023-02-21T02:58:42.580Z,3.13
2023-02-21T03:04:00.406Z,2.98
2023-02-21T03:09:14.833Z,3.14
2023-02-21T03:14:23.806Z,3.07
2023-02-21T03:19:32.489Z,2.95
2023-02-21T03:24:41.522Z,2.86
2023-02-21T03:29:47.694Z,2.90
2023-02-21T03:34:52.360Z,2.87
2023-02-21T03:40:00.203Z,2.95
2023-02-21T03:45:07.084Z,3.11
2023-02-21T03:50:11.417Z,2.92
2023-02-21T03:55:20.859Z,2.87
2023-02-21T04:00:25.476Z,2.98
2023-02-21T04:05:32.190Z,2.67
2023-02-21T04:10:50.470Z,2.74
2023-02-21T04:15:57.760Z,2.70
2023-02-21T04:21:02.683Z,2.32
2023-02-21T04:26:08.615Z,2.39
2023-02-21T04:31:23.741Z,2.66
2023-02-21T04:36:29.839Z,2.78
2023-02-21T04:41:36.183Z,2.95
2023-02-21T04:46:40.774Z,2.68
2023-02-21T04:51:46.235Z,2.55
2023-02-21T04:56:51.610Z,2.74
2023-02-21T05:01:55.587Z,2.57
2023-02-21T05:07:00.355Z,2.64
2023-02-21T05:12:11.387Z,2.37
2023-02-21T05:17:15.332Z,2.44
2023-02-21T05:22:20.754Z,2.12
2023-02-21T05:27:26.498Z,2.14
2023-02-21T05:32:31.054Z,2.42
2023-02-21T05:37:35.749Z,2.52
2023-02-21T05:42:41.188Z,2.46
2023-02-21T05:47:45.321Z,2.55
2023-02-21T05:52:49.309Z,2.60
2023-02-21T05:57:55.988Z,2.69
2023-02-21T06:03:02.424Z,3.10
2023-02-21T06:08:10.456Z,3.17
2023-02-21T06:13:16.439Z,3.27
2023-02-21T06:18:20.522Z,3.46
2023-02-21T06:23:24.640Z,3.86
2023-02-21T06:28:31.540Z,4.38
2023-02-21T06:33:35.956Z,4.48
2023-02-21T06:38:40.210Z,5.39
2023-02-21T06:43:45.996Z,5.74
2023-02-21T06:48:50.779Z,6.74
2023-02-21T06:53:54.807Z,6.89
2023-02-21T06:59:00.271Z,6.77
2023-02-21T07:04:04.492Z,6.48
2023-02-21T07:09:09.186Z,6.45
2023-02-21T07:14:14.693Z,6.35
2023-02-21T07:19:19.922Z,5.90
2023-02-21T07:24:24.028Z,5.57
2023-02-21T07:29:30.451Z,5.64
2023-02-21T07:34:34.445Z,5.64
2023-02-21T07:39:39.369Z,5.33
2023-02-21T07:44:44.825Z,5.32
2023-02-21T07:49:48.943Z,5.24
2023-02-21T07:54:53.229Z,5.28
2023-02-21T07:59:58.636Z,5.19
2023-02-21T08:05:03.173Z,5.25
2023-02-21T08:10:08.169Z,5.55
2023-02-21T08:15:14.169Z,5.41
2023-02-21T08:20:19.715Z,5.66
2023-02-21T08:25:25.091Z,5.56
2023-02-21T08:30:30.663Z,5.93
2023-02-21T08:35:36.422Z,6.07
2023-02-21T08:40:46.191Z,6.64
2023-02-21T08:45:52.253Z,7.07
2023-02-21T08:50:57.056Z,7.48
2023-02-21T08:56:01.390Z,7.76
2023-02-21T09:01:07.457Z,8.23
2023-02-21T09:06:19.255Z,8.86
2023-02-21T09:11:24.819Z,9.75
2023-02-21T09:16:31.569Z,10.86
2023-02-21T09:21:45.812Z,11.83
2023-02-21T09:26:50.435Z,13.41
2023-02-21T09:31:56.428Z,14.07
2023-02-21T09:37:06.775Z,15.12
2023-02-21T09:42:15.882Z,16.32
2023-02-21T09:47:29.584Z,17.28
2023-02-21T09:52:36.471Z,17.11
2023-02-21T09:57:40.575Z,17.41
2023-02-21T10:02:56.950Z,17.51
2023-02-21T10:08:09.058Z,17.76
2023-02-21T10:13:32.162Z,18.02
2023-02-21T10:18:45.334Z,17.96
2023-02-21T10:23:52.218Z,18.37
2023-02-21T10:28:58.063Z,18.44
2023-02-21T10:34:07.758Z,18.60
2023-02-21T10:39:16.697Z,18.81
2023-02-21T10:44:30.572Z,18.74
2023-02-21T10:49:42.729Z,18.74
2023-02-21T10:55:02.575Z,18.73
2023-02-21T11:00:10.967Z,18.70
2023-02-21T11:05:19.128Z,18.93
2023-02-21T11:10:29.973Z,18.71
2023-02-21T11:15:34.208Z,18.41
2023-02-21T11:20:39.752Z,18.74
2023-02-21T11:25:49.052Z,18.68
2023-02-21T11:31:08.739Z,18.96
2023-02-21T11:36:17.280Z,19.19
2023-02-21T11:41:29.153Z,19.10
2023-02-21T11:46:44.102Z,18.33
2023-02-21T11:51:55.707Z,18.41
2023-02-21T11:57:10.675Z,18.47
2023-02-21T12:02:41.922Z,18.13
2023-02-21T12:07:54.753Z,17.91
2023-02-21T12:13:05.443Z,17.40
2023-02-21T12:18:31.445Z,17.69
2023-02-21T12:23:47.579Z,17.71
2023-02-21T12:29:07.234Z,17.79
2023-02-21T12:34:28.924Z,17.50
2023-02-21T12:39:55.554Z,17.31
2023-02-21T12:45:15.793Z,16.86
2023-02-21T12:50:26.123Z,16.43
2023-02-21T12:55:35.503Z,16.83
2023-02-21T13:00:50.122Z,17.07
2023-02-21T13:06:00.523Z,16.77
2023-02-21T13:11:12.614Z,17.53
2023-02-21T13:16:19.394Z,17.59
2023-02-21T13:21:36.238Z,17.22
2023-02-21T13:26:58.933Z,16.84
2023-02-21T13:32:07.840Z,17.36
2023-02-21T13:37:18.101Z,18.19
2023-02-21T13:42:32.813Z,18.39
2023-02-21T13:48:32.050Z,18.72
2023-02-21T13:54:10.607Z,18.46
2023-02-21T13:59:41.026Z,18.41
2023-02-21T14:05:09.658Z,18.37
2023-02-21T14:10:26.467Z,18.67
2023-02-21T14:15:45.521Z,18.66
2023-02-21T14:20:56.660Z,18.56
2023-02-21T14:26:03.719Z,18.62
2023-02-21T14:31:13.483Z,18.62
2023-02-21T14:36:19.278Z,18.63
2023-02-21T14:41:54.627Z,18.45
2023-02-21T14:47:37.786Z,18.60
2023-02-21T14:53:20.815Z,18.92
2023-02-21T14:58:58.688Z,19.09
2023-02-21T15:04:16.060Z,19.01
2023-02-21T15:09:25.260Z,19.03
2023-02-21T15:14:33.356Z,19.13
2023-02-21T15:19:40.324Z,19.47
2023-02-21T15:25:25.212Z,19.32
2023-02-21T15:30:47.215Z,19.11
2023-02-21T15:36:02.805Z,18.80
2023-02-21T15:41:12.022Z,18.31
2023-02-21T15:46:25.675Z,17.74
2023-02-21T15:51:33.570Z,17.34
2023-02-21T15:56:38.181Z,16.41
2023-02-21T16:01:42.563Z,15.77
2023-02-21T16:06:59.977Z,15.25
2023-02-21T16:12:08.861Z,15.02
2023-02-21T16:17:24.323Z,14.76
2023-02-21T16:23:04.119Z,14.36
2023-02-21T16:28:14.937Z,14.05
2023-02-21T16:33:22.004Z,13.98
2023-02-21T16:38:28.804Z,13.60
2023-02-21T16:43:34.410Z,13.41
2023-02-21T16:48:38.473Z,13.42
2023-02-21T16:53:44.188Z,13.44
2023-02-21T16:58:52.558Z,13.01
2023-02-21T17:03:57.130Z,12.81
2023-02-21T17:09:02.537Z,12.78
2023-02-21T17:14:06.675Z,12.69
2023-02-21T17:19:12.599Z,12.75
2023-02-21T17:24:18.425Z,12.56
2023-02-21T17:29:25.544Z,12.18
2023-02-21T17:34:30.642Z,12.33
2023-02-21T17:39:38.912Z,11.85
2023-02-21T17:44:47.289Z,11.55
2023-02-21T17:49:56.858Z,11.12
2023-02-21T17:55:07.953Z,10.67
2023-02-21T18:00:21.501Z,10.16
2023-02-21T18:05:25.745Z,9.57
2023-02-21T18:10:31.107Z,9.46
2023-02-21T18:15:35.504Z,9.47
2023-02-21T18:20:40.871Z,9.31
2023-02-21T18:25:49.238Z,9.15
2023-02-21T18:30:53.962Z,8.90
2023-02-21T18:36:00.581Z,8.49
2023-02-21T18:41:11.083Z,8.36
2023-02-21T18:46:17.884Z,8.42
2023-02-21T18:51:22.246Z,8.09
2023-02-21T18:56:27.935Z,7.78
2023-02-21T19:01:32.034Z,7.89
2023-02-21T19:06:36.278Z,8.02
2023-02-21T19:11:42.997Z,7.90
2023-02-21T19:16:47.018Z,7.62
2023-02-21T19:21:51.007Z,7.49
2023-02-21T19:26:56.562Z,7.39
2023-02-21T19:32:01.041Z,7.44
2023-02-21T19:37:06.152Z,7.13
2023-02-21T19:42:11.778Z,7.22
2023-02-21T19:47:15.968Z,7.19
2023-02-21T19:52:20.037Z,7.01
2023-02-21T19:57:26.014Z,6.96
2023-02-21T20:02:32.061Z,6.78
2023-02-21T20:07:36.317Z,6.75
2023-02-21T20:12:41.752Z,6.65
2023-02-21T20:17:46.779Z,6.39
2023-02-21T20:22:51.203Z,6.28
2023-02-21T20:27:56.770Z,6.29
2023-02-21T20:33:03.273Z,6.43
2023-02-21T20:38:12.129Z,6.32
2023-02-21T20:43:18.561Z,5.99
2023-02-21T20:48:25.628Z,6.08
2023-02-21T20:53:30.353Z,5.86
2023-02-21T20:58:36.787Z,5.91
2023-02-21T21:03:40.833Z,5.68
2023-02-21T21:08:45.737Z,6.02
2023-02-21T21:13:51.304Z,5.97
2023-02-21T21:18:57.386Z,6.15
2023-02-21T21:24:01.718Z,6.21
2023-02-21T21:29:09.410Z,6.08
2023-02-21T21:34:13.438Z,6.15
2023-02-21T21:39:19.455Z,5.83
2023-02-21T21:44:25.761Z,6.02
2023-02-21T21:49:32.625Z,6.27
2023-02-21T21:54:37.751Z,6.29
2023-02-21T21:59:43.671Z,6.36
2023-02-21T22:04:48.170Z,6.37
2023-02-21T22:09:52.446Z,6.07
2023-02-21T22:14:58.312Z,6.36
2023-02-21T22:20:14.484Z,6.09
2023-02-21T22:25:20.258Z,6.57
2023-02-21T22:30:26.776Z,6.39
2023-02-21T22:35:31.084Z,6.64
2023-02-21T22:40:35.769Z,6.51
2023-02-21T22:45:44.354Z,6.44
2023-02-21T22:50:48.347Z,6.44
2023-02-21T22:55:53.551Z,6.25
2023-02-21T23:01:00.205Z,6.48
2023-02-21T23:06:08.271Z,6.32
2023-02-21T23:11:19.881Z,6.73
2023-02-21T23:16:25.299Z,6.74
2023-02-21T23:21:31.012Z,6.85
2023-02-21T23:26:35.037Z,6.66
2023-02-21T23:31:41.112Z,7.74
2023-02-21T23:36:45.928Z,7.27
2023-02-21T23:41:50.004Z,7.19
2023-02-21T23:46:55.544Z,7.27
2023-02-21T23:52:01.975Z,7.46
2023-02-21T23:57:07.856Z,7.36
